Time;durP1;ratioP1;P1;durP2;ratioP2;P2;SDS_P1;SDS_P2;PMS_P1;PMS_P2;Temp;Humidity;BMP_temperature;BMP_pressure;BME280_temperature;BME280_humidity;BME280_pressure;Samples;Min_cycle;Max_cycle;Signal;HPM_P1;HPM_P2
2022/08/18 00:00:43;;;;;;;14.67;7.73;;;20.10;86.20;;;;;;4917469;28;20129;-75
2022/08/18 00:03:10;;;;;;;14.45;7.13;;;20.10;86.30;;;;;;4941873;28;20038;-75
2022/08/18 00:05:37;;;;;;;12.32;7.32;;;20.10;86.30;;;;;;4964127;28;20022;-76
2022/08/18 00:08:04;;;;;;;13.20;7.60;;;20.10;86.40;;;;;;4943981;28;20105;-76
2022/08/18 00:10:30;;;;;;;12.95;7.68;;;20.10;86.50;;;;;;4922963;28;20037;-75
2022/08/18 00:12:56;;;;;;;13.53;7.73;;;20.10;86.50;;;;;;4955681;28;20054;-76
2022/08/18 00:15:22;;;;;;;13.75;7.45;;;20.10;86.60;;;;;;4922480;28;20111;-76
2022/08/18 00:17:48;;;;;;;14.70;8.40;;;20.10;86.60;;;;;;4938814;28;20178;-78
2022/08/18 00:20:19;;;;;;;16.40;9.00;;;20.10;86.70;;;;;;4956713;28;20376;-76
2022/08/18 00:22:46;;;;;;;16.43;8.90;;;20.10;86.60;;;;;;4949335;28;20109;-75
2022/08/18 00:25:14;;;;;;;11.52;7.07;;;20.10;86.60;;;;;;4917150;28;20256;-75
2022/08/18 00:27:40;;;;;;;12.73;7.57;;;20.10;86.80;;;;;;4971948;28;20121;-75
2022/08/18 00:30:10;;;;;;;12.70;7.53;;;20.10;86.80;;;;;;4921251;28;20189;-75
2022/08/18 00:32:39;;;;;;;13.23;7.63;;;20.10;86.90;;;;;;4961550;28;20023;-76
2022/08/18 00:35:17;;;;;;;14.23;8.38;;;20.10;86.90;;;;;;4959548;28;20256;-76
2022/08/18 00:37:43;;;;;;;13.02;7.30;;;20.10;87.00;;;;;;4967634;28;20069;-76
2022/08/18 00:40:13;;;;;;;17.67;8.27;;;20.10;87.10;;;;;;4939343;28;20039;-76
2022/08/18 00:42:43;;;;;;;18.17;9.13;;;20.10;87.20;;;;;;4952729;28;20034;-76
2022/08/18 00:45:14;;;;;;;18.73;9.17;;;20.10;87.20;;;;;;4906220;28;20390;-77
2022/08/18 00:47:39;;;;;;;18.88;9.68;;;20.10;87.40;;;;;;4949841;28;20121;-77
2022/08/18 00:50:06;;;;;;;19.90;9.68;;;20.10;87.30;;;;;;4956170;28;20121;-77
2022/08/18 00:52:32;;;;;;;20.23;10.48;;;20.10;87.30;;;;;;4961787;28;20054;-77
2022/08/18 00:55:01;;;;;;;18.23;8.97;;;20.10;87.40;;;;;;4957375;28;20022;-78
2022/08/18 00:57:28;;;;;;;18.20;9.13;;;20.00;87.30;;;;;;4936285;28;20344;-77
2022/08/18 01:00:10;;;;;;;18.30;9.07;;;20.00;87.30;;;;;;4971893;28;20538;-77
2022/08/18 01:02:42;;;;;;;18.55;9.50;;;20.00;87.50;;;;;;4937392;28;20130;-78
2022/08/18 01:05:32;;;;;;;18.65;9.35;;;20.00;87.60;;;;;;4959857;28;20309;-78
2022/08/18 01:07:58;;;;;;;15.80;8.77;;;20.00;87.60;;;;;;4963590;28;20030;-78
2022/08/18 01:10:24;;;;;;;18.38;9.32;;;20.00;87.60;;;;;;4965338;28;20023;-78
2022/08/18 01:12:54;;;;;;;20.10;9.65;;;19.90;87.60;;;;;;4955859;28;20424;-77
2022/08/18 01:15:22;;;;;;;17.90;9.38;;;19.90;87.70;;;;;;4956170;28;20346;-77
2022/08/18 01:23:29;;;;;;;22.23;10.02;;;19.90;88.10;;;;;;4957219;28;20034;-78
2022/08/18 01:26:05;;;;;;;17.70;8.85;;;19.90;88.20;;;;;;4964930;28;20039;-78
2022/08/18 01:28:34;;;;;;;19.98;9.20;;;20.00;88.40;;;;;;4945671;28;20446;-76
2022/08/18 01:31:02;;;;;;;19.90;9.45;;;20.00;88.50;;;;;;4949961;28;20027;-75
2022/08/18 01:33:32;;;;;;;18.87;8.83;;;19.90;88.40;;;;;;4932060;28;20023;-76
2022/08/18 01:36:04;;;;;;;21.30;9.38;;;19.90;88.50;;;;;;4962748;28;20034;-78
2022/08/18 01:38:33;;;;;;;19.20;9.50;;;19.90;88.60;;;;;;4952853;28;20518;-77
2022/08/18 01:40:59;;;;;;;18.42;10.48;;;20.00;88.60;;;;;;4943541;28;20118;-76
2022/08/18 01:43:25;;;;;;;24.02;10.50;;;19.90;88.70;;;;;;4923670;28;20087;-76
2022/08/18 01:45:51;;;;;;;21.03;9.97;;;19.90;88.80;;;;;;4946073;28;20026;-76
2022/08/18 01:48:17;;;;;;;16.98;9.07;;;19.90;88.90;;;;;;4930266;28;20809;-76
2022/08/18 01:50:44;;;;;;;25.85;10.05;;;19.90;89.00;;;;;;4946201;28;20030;-78
2022/08/18 01:53:10;;;;;;;24.35;10.27;;;20.00;89.20;;;;;;4920572;28;21185;-78
2022/08/18 01:55:41;;;;;;;26.60;10.63;;;19.90;89.20;;;;;;4978470;28;20026;-76
2022/08/18 01:58:07;;;;;;;30.07;9.90;;;20.00;89.30;;;;;;4937474;28;20488;-76
2022/08/18 02:00:34;;;;;;;23.48;10.05;;;20.00;89.40;;;;;;4945314;28;20037;-76
2022/08/18 02:03:05;;;;;;;25.45;10.27;;;20.00;89.50;;;;;;4932171;28;20054;-75
2022/08/18 02:05:36;;;;;;;22.73;10.50;;;20.00;89.50;;;;;;4919453;28;20037;-76
2022/08/18 02:08:02;;;;;;;22.57;10.20;;;20.00;89.60;;;;;;4929037;28;20750;-76
2022/08/18 02:10:28;;;;;;;20.85;10.10;;;20.00;89.70;;;;;;4942081;28;20280;-76
2022/08/18 02:12:53;;;;;;;22.35;9.27;;;20.00;89.80;;;;;;4925151;28;20086;-76
2022/08/18 02:15:19;;;;;;;27.27;11.23;;;20.00;89.90;;;;;;4929762;29;20026;-76
2022/08/18 02:17:45;;;;;;;28.63;11.40;;;20.00;90.00;;;;;;4925632;28;20038;-76
2022/08/18 02:20:15;;;;;;;22.73;10.13;;;20.00;90.00;;;;;;4917807;28;20328;-78
2022/08/18 02:22:42;;;;;;;27.58;11.20;;;20.00;90.00;;;;;;4962139;28;20390;-78
2022/08/18 02:25:08;;;;;;;33.83;11.43;;;20.00;90.10;;;;;;4966089;28;20081;-75
2022/08/18 02:27:34;;;;;;;33.03;11.48;;;20.10;90.20;;;;;;4954760;28;20272;-75
2022/08/18 02:30:02;;;;;;;35.55;10.98;;;20.10;90.20;;;;;;4923444;28;20552;-75
2022/08/18 02:32:28;;;;;;;34.45;11.02;;;20.10;90.30;;;;;;4946056;28;20742;-76
2022/08/18 02:34:54;;;;;;;36.93;11.40;;;20.10;90.30;;;;;;4946412;28;20047;-76
2022/08/18 02:37:20;;;;;;;28.75;11.43;;;20.10;90.40;;;;;;4955335;28;20034;-75
2022/08/18 02:39:46;;;;;;;31.20;11.52;;;20.20;90.40;;;;;;4958170;28;20437;-76
2022/08/18 02:42:13;;;;;;;23.63;11.03;;;20.20;90.50;;;;;;4956279;28;20111;-76
2022/08/18 02:44:39;;;;;;;30.17;10.93;;;20.20;90.50;;;;;;4932742;28;20503;-78
2022/08/18 02:47:05;;;;;;;28.52;11.38;;;20.20;90.50;;;;;;4959472;28;20031;-78
2022/08/18 02:49:31;;;;;;;26.47;10.97;;;20.20;90.50;;;;;;4940544;28;20094;-78
2022/08/18 02:51:57;;;;;;;23.50;10.82;;;20.30;90.50;;;;;;4953579;28;20351;-78
2022/08/18 02:54:24;;;;;;;41.15;10.80;;;20.30;90.60;;;;;;4938529;28;20042;-76
2022/08/18 02:56:51;;;;;;;30.30;11.33;;;20.30;90.60;;;;;;4939198;28;20035;-76
2022/08/18 02:59:20;;;;;;;27.45;11.07;;;20.30;90.60;;;;;;4964054;28;20022;-77
2022/08/18 03:01:50;;;;;;;24.98;11.50;;;20.30;90.60;;;;;;4934888;28;20047;-76
2022/08/18 03:04:21;;;;;;;25.42;11.00;;;20.40;90.60;;;;;;4940213;28;20106;-77
2022/08/18 03:06:47;;;;;;;26.10;11.73;;;20.40;90.80;;;;;;4933492;28;20035;-76
2022/08/18 03:09:15;;;;;;;22.73;11.27;;;20.40;90.70;;;;;;4942201;28;20081;-76
2022/08/18 03:11:41;;;;;;;24.85;12.30;;;20.40;90.60;;;;;;4933752;28;20023;-76
2022/08/18 03:14:07;;;;;;;26.08;11.40;;;20.40;90.60;;;;;;4936138;28;20027;-76
2022/08/18 03:16:34;;;;;;;22.33;11.17;;;20.40;90.60;;;;;;4947009;28;20057;-76
2022/08/18 03:19:00;;;;;;;23.42;11.07;;;20.40;91.00;;;;;;4963234;28;20038;-76
2022/08/18 03:21:29;;;;;;;26.17;11.68;;;20.40;90.60;;;;;;4930864;28;20038;-76
2022/08/18 03:23:55;;;;;;;25.27;11.73;;;20.50;90.60;;;;;;4945307;28;20031;-76
2022/08/18 03:26:23;;;;;;;25.73;11.82;;;20.40;90.90;;;;;;4924018;28;20284;-76
2022/08/18 03:28:50;;;;;;;25.03;11.73;;;20.40;90.60;;;;;;4959325;28;20485;-76
2022/08/18 03:31:18;;;;;;;25.35;11.15;;;20.40;90.60;;;;;;4946854;28;20403;-76
2022/08/18 03:33:45;;;;;;;30.67;11.88;;;20.40;90.60;;;;;;4975442;28;20383;-76
2022/08/18 03:36:20;;;;;;;21.73;11.50;;;20.40;90.60;;;;;;4944414;28;20507;-76
2022/08/18 03:38:47;;;;;;;26.60;11.27;;;20.40;90.60;;;;;;4947752;28;20505;-76
2022/08/18 03:41:16;;;;;;;32.07;11.33;;;20.40;90.60;;;;;;4960305;28;20114;-76
2022/08/18 03:43:42;;;;;;;33.70;11.82;;;20.30;90.60;;;;;;4974892;28;20046;-76
2022/08/18 03:46:12;;;;;;;24.17;11.05;;;20.40;91.00;;;;;;4958121;28;20033;-76
2022/08/18 03:48:40;;;;;;;56.90;11.52;;;20.30;90.70;;;;;;4965906;28;20022;-76
2022/08/18 03:51:12;;;;;;;44.55;11.07;;;20.40;90.70;;;;;;4961259;28;20026;-76
2022/08/18 03:53:39;;;;;;;26.47;10.63;;;20.30;90.70;;;;;;4966082;28;20041;-76
2022/08/18 03:56:14;;;;;;;26.42;10.48;;;20.30;90.70;;;;;;4983331;28;20098;-76
2022/08/18 03:58:41;;;;;;;26.17;10.38;;;20.30;90.70;;;;;;4955906;28;20050;-76
2022/08/18 04:01:07;;;;;;;38.08;10.73;;;20.30;90.70;;;;;;4965525;28;20030;-77
2022/08/18 04:03:32;;;;;;;30.37;10.27;;;20.30;90.70;;;;;;4965740;28;20037;-76
2022/08/18 04:05:58;;;;;;;23.70;9.83;;;20.30;90.80;;;;;;4981714;28;20392;-76
2022/08/18 04:08:24;;;;;;;29.08;10.25;;;20.30;90.80;;;;;;4948650;28;20066;-76
2022/08/18 04:10:50;;;;;;;23.67;9.10;;;20.30;90.80;;;;;;4954075;28;20050;-76
2022/08/18 04:13:16;;;;;;;18.05;9.35;;;20.30;90.80;;;;;;4948484;28;20146;-76
2022/08/18 04:15:42;;;;;;;26.77;10.33;;;20.30;90.80;;;;;;4983538;28;20026;-76
2022/08/18 04:18:07;;;;;;;21.30;10.00;;;20.30;90.80;;;;;;4946345;28;20423;-77
2022/08/18 04:20:34;;;;;;;26.02;9.90;;;20.30;90.80;;;;;;4968268;28;20511;-76
2022/08/18 04:23:01;;;;;;;22.00;9.20;;;20.30;90.80;;;;;;4964401;28;20035;-76
2022/08/18 04:25:27;;;;;;;43.00;9.90;;;20.30;91.10;;;;;;4955865;28;20042;-76
2022/08/18 04:27:56;;;;;;;24.60;10.13;;;20.20;90.80;;;;;;4980144;28;20038;-76
2022/08/18 04:30:23;;;;;;;21.90;9.73;;;20.20;90.80;;;;;;4957281;28;20018;-76
2022/08/18 04:32:50;;;;;;;22.50;9.32;;;20.20;90.80;;;;;;4951512;28;20686;-76
2022/08/18 04:35:15;;;;;;;20.40;9.03;;;20.20;91.20;;;;;;4966833;28;20403;-76
2022/08/18 04:37:42;;;;;;;18.13;9.20;;;20.20;90.80;;;;;;4951796;28;20035;-76
2022/08/18 04:40:09;;;;;;;18.95;9.13;;;20.20;90.80;;;;;;4961475;28;20019;-76
2022/08/18 04:42:35;;;;;;;20.75;8.77;;;20.10;90.80;;;;;;4968024;28;20408;-76
2022/08/18 04:45:01;;;;;;;24.10;10.00;;;20.20;90.90;;;;;;4962127;28;20042;-76
2022/08/18 04:47:27;;;;;;;19.07;9.63;;;20.10;91.00;;;;;;4974125;28;20042;-77
2022/08/18 04:49:53;;;;;;;23.20;9.67;;;20.20;91.00;;;;;;4989730;28;20244;-76
2022/08/18 04:55:03;;;;;;;28.10;8.88;;;20.10;91.10;;;;;;4961510;28;20026;-76
2022/08/18 04:57:32;;;;;;;27.73;9.45;;;20.10;91.10;;;;;;4952672;28;20077;-76
2022/08/18 04:59:58;;;;;;;27.23;9.82;;;20.10;91.10;;;;;;4974936;28;20081;-77
2022/08/18 05:02:23;;;;;;;18.57;9.00;;;20.10;91.20;;;;;;4960824;28;20061;-77
2022/08/18 05:04:49;;;;;;;19.70;9.52;;;20.20;91.20;;;;;;4970547;28;20117;-76
2022/08/18 05:07:18;;;;;;;26.87;9.83;;;20.20;91.30;;;;;;4967608;28;20046;-77
2022/08/18 05:09:44;;;;;;;17.60;8.05;;;20.20;91.30;;;;;;4929910;28;20281;-76
2022/08/18 05:12:13;;;;;;;21.15;8.48;;;20.20;91.30;;;;;;4967727;28;20094;-76
2022/08/18 05:14:43;;;;;;;19.23;9.05;;;20.20;91.30;;;;;;4945099;28;20045;-76
2022/08/18 05:17:10;;;;;;;18.50;8.57;;;20.20;91.30;;;;;;4960990;28;20775;-77
2022/08/18 05:19:36;;;;;;;17.33;8.88;;;20.20;91.40;;;;;;4956133;28;20045;-77
2022/08/18 05:22:03;;;;;;;18.88;8.80;;;20.20;91.50;;;;;;4986677;28;20463;-77
2022/08/18 05:24:31;;;;;;;16.05;8.82;;;20.30;91.60;;;;;;4958356;28;20443;-77
2022/08/18 05:26:57;;;;;;;20.83;9.38;;;20.30;91.60;;;;;;4967251;28;20573;-76
2022/08/18 05:29:23;;;;;;;17.10;8.70;;;20.30;91.60;;;;;;4958998;28;20115;-77
2022/08/18 05:31:51;;;;;;;26.38;8.60;;;20.30;91.60;;;;;;4955985;28;20031;-77
2022/08/18 05:34:18;;;;;;;16.93;8.27;;;20.30;91.60;;;;;;4965318;28;20661;-77
2022/08/18 05:36:47;;;;;;;15.30;9.35;;;20.40;91.70;;;;;;4954543;28;24720;-76
2022/08/18 05:39:49;;;;;;;20.77;9.40;;;20.40;91.70;;;;;;4940498;28;20042;-77
2022/08/18 05:42:18;;;;;;;20.40;9.02;;;20.40;91.60;;;;;;4961000;28;20137;-77
2022/08/18 05:44:48;;;;;;;17.27;9.38;;;20.40;91.70;;;;;;4966606;28;20438;-77
2022/08/18 05:47:23;;;;;;;22.03;9.43;;;20.40;91.70;;;;;;4969056;28;20030;-76
2022/08/18 05:49:49;;;;;;;29.50;9.60;;;20.40;91.80;;;;;;4962141;28;20692;-77
2022/08/18 05:52:20;;;;;;;22.60;9.48;;;20.40;91.90;;;;;;4964682;28;20248;-77
2022/08/18 05:57:46;;;;;;;20.38;9.85;;;20.50;91.90;;;;;;4950387;28;20122;-77
2022/08/18 06:00:13;;;;;;;16.60;8.97;;;20.50;91.90;;;;;;4942619;28;20101;-77
2022/08/18 06:02:51;;;;;;;22.98;9.57;;;20.50;92.10;;;;;;4980297;28;20128;-76
2022/08/18 06:05:29;;;;;;;21.15;10.00;;;20.50;92.10;;;;;;4970736;28;20030;-77
2022/08/18 06:08:02;;;;;;;21.73;9.90;;;20.60;92.20;;;;;;4972476;28;20162;-77
2022/08/18 06:10:28;;;;;;;23.23;10.05;;;20.70;92.30;;;;;;4934809;28;20472;-77
2022/08/18 06:12:57;;;;;;;19.80;10.13;;;20.70;92.50;;;;;;4928941;28;20037;-77
2022/08/18 06:15:32;;;;;;;19.08;8.88;;;20.70;92.60;;;;;;4985183;28;20028;-77
2022/08/18 06:18:35;;;;;;;16.75;8.93;;;20.80;92.70;;;;;;4947348;28;20265;-76
2022/08/18 06:21:15;;;;;;;20.70;9.25;;;20.90;92.40;;;;;;4892544;28;20046;-77
2022/08/18 06:23:50;;;;;;;17.63;9.15;;;20.90;92.60;;;;;;4963221;28;20058;-76
2022/08/18 06:26:53;;;;;;;18.40;9.67;;;21.00;92.80;;;;;;4942620;28;20594;-77
2022/08/18 06:29:46;;;;;;;18.73;9.18;;;21.10;92.50;;;;;;4974088;28;20073;-77
2022/08/18 06:32:45;;;;;;;18.25;9.38;;;21.20;92.50;;;;;;4975524;28;20313;-77
2022/08/18 06:35:33;;;;;;;17.48;9.13;;;21.20;92.40;;;;;;4950347;28;20237;-77
2022/08/18 06:41:31;;;;;;;19.10;9.73;;;21.30;92.60;;;;;;4973657;28;20121;-77
2022/08/18 06:44:03;;;;;;;23.60;9.60;;;21.30;92.40;;;;;;4938033;28;20422;-77
2022/08/18 06:46:46;;;;;;;19.65;10.13;;;21.40;92.60;;;;;;4969447;28;20050;-77
2022/08/18 06:49:38;;;;;;;19.38;10.63;;;21.40;92.70;;;;;;4960201;28;20273;-77
2022/08/18 06:52:25;;;;;;;20.65;10.75;;;21.50;92.60;;;;;;4962704;28;20534;-77
2022/08/18 06:54:52;;;;;;;16.47;8.87;;;21.60;92.60;;;;;;4965474;28;20558;-77
2022/08/18 06:57:32;;;;;;;18.58;9.98;;;21.60;93.00;;;;;;4958487;28;20213;-76
2022/08/18 07:00:18;;;;;;;19.95;9.85;;;21.70;92.70;;;;;;4947599;28;20061;-76
2022/08/18 07:03:05;;;;;;;17.77;8.88;;;21.70;92.80;;;;;;4964170;28;20014;-77
2022/08/18 07:05:33;;;;;;;19.63;9.75;;;21.80;92.60;;;;;;4984185;28;20035;-77
2022/08/18 07:08:03;;;;;;;16.73;9.20;;;21.80;93.00;;;;;;4952371;28;20037;-77
2022/08/18 07:10:36;;;;;;;18.00;9.75;;;21.90;92.90;;;;;;4940148;28;20018;-76
2022/08/18 07:13:16;;;;;;;17.27;9.75;;;21.90;92.90;;;;;;4939202;28;20101;-76
2022/08/18 07:15:44;;;;;;;20.17;10.20;;;22.00;92.60;;;;;;4978555;28;20109;-76
2022/08/18 07:18:11;;;;;;;16.90;9.68;;;22.10;93.10;;;;;;4978840;28;20221;-76
2022/08/18 07:20:54;;;;;;;17.53;9.57;;;22.10;93.20;;;;;;4983111;28;20081;-76
2022/08/18 07:23:37;;;;;;;15.57;8.75;;;22.20;92.80;;;;;;4975816;28;20069;-76
2022/08/18 07:26:09;;;;;;;18.25;10.02;;;22.30;92.70;;;;;;4978027;28;20118;-76
2022/08/18 07:28:45;;;;;;;16.65;9.57;;;22.40;93.10;;;;;;4962548;28;20145;-76
2022/08/18 07:31:29;;;;;;;17.90;9.88;;;22.40;93.00;;;;;;4977459;28;20034;-77
2022/08/18 07:34:07;;;;;;;16.13;9.10;;;22.50;92.80;;;;;;4977374;28;20031;-76
2022/08/18 07:36:46;;;;;;;16.35;9.55;;;22.50;92.90;;;;;;4938156;28;20030;-76
2022/08/18 07:39:26;;;;;;;18.23;9.10;;;22.60;93.00;;;;;;4966437;28;20108;-76
2022/08/18 07:42:00;;;;;;;17.95;9.88;;;22.70;92.90;;;;;;4965284;28;20101;-76
2022/08/18 07:44:53;;;;;;;13.65;8.07;;;22.80;93.10;;;;;;4940374;28;20042;-76
2022/08/18 07:47:50;;;;;;;15.70;8.73;;;22.90;92.70;;;;;;4977634;28;20062;-77
2022/08/18 07:50:16;;;;;;;13.60;8.20;;;23.00;93.20;;;;;;4963843;28;20117;-76
2022/08/18 07:52:57;;;;;;;15.38;9.13;;;23.10;94.10;;;;;;4933369;28;23291;-76
2022/08/18 07:55:30;;;;;;;16.70;8.77;;;23.30;93.70;;;;;;4951571;28;20117;-76
2022/08/18 07:58:21;;;;;;;13.40;8.20;;;23.50;94.70;;;;;;4959093;28;20219;-76
2022/08/18 08:01:00;;;;;;;13.60;8.63;;;23.80;93.80;;;;;;4940640;28;20662;-76
2022/08/18 08:03:58;;;;;;;14.00;8.48;;;24.00;94.60;;;;;;4967658;28;20026;-76
2022/08/18 08:06:41;;;;;;;14.55;8.15;;;24.30;93.50;;;;;;4969725;28;20506;-77
2022/08/18 08:09:21;;;;;;;12.27;8.32;;;24.50;94.20;;;;;;4968574;28;20117;-76
2022/08/18 08:12:30;;;;;;;11.03;7.53;;;24.90;94.70;;;;;;4966085;28;20667;-77
2022/08/18 08:15:03;;;;;;;11.73;7.05;;;25.30;94.30;;;;;;4951062;28;21202;-77
2022/08/18 08:17:52;;;;;;;11.75;7.68;;;25.70;95.10;;;;;;4951372;28;20133;-77
2022/08/18 08:20:21;;;;;;;11.43;7.68;;;26.10;94.50;;;;;;4983365;28;20485;-77
2022/08/18 08:23:23;;;;;;;8.07;6.28;;;26.60;95.70;;;;;;4945019;28;20018;-77
2022/08/18 08:25:58;;;;;;;8.60;5.60;;;27.10;94.40;;;;;;4965024;28;20058;-77
2022/08/18 08:28:36;;;;;;;6.22;4.32;;;27.70;96.90;;;;;;4978686;28;20039;-76
2022/08/18 08:31:17;;;;;;;7.40;5.00;;;28.20;96.50;;;;;;4940242;28;20063;-77
2022/08/18 08:34:13;;;;;;;8.68;5.35;;;28.80;93.50;;;;;;4982383;28;20014;-77
2022/08/18 08:36:43;;;;;;;7.28;5.50;;;29.30;91.80;;;;;;4967354;28;20046;-77
2022/08/18 08:39:24;;;;;;;7.30;5.10;;;29.60;92.50;;;;;;4964631;28;20041;-77
2022/08/18 08:42:00;;;;;;;6.93;4.90;;;29.70;88.10;;;;;;4956568;28;20034;-77
2022/08/18 08:44:35;;;;;;;5.45;4.30;;;29.70;90.50;;;;;;4980478;28;20566;-77
2022/08/18 08:47:14;;;;;;;5.97;4.85;;;29.70;87.20;;;;;;4943004;28;20352;-77
2022/08/18 08:50:02;;;;;;;6.05;4.63;;;29.60;84.80;;;;;;4953987;28;20030;-77
2022/08/18 08:52:34;;;;;;;7.27;5.40;;;29.40;86.20;;;;;;4981009;28;20022;-77
2022/08/18 08:55:10;;;;;;;7.53;5.55;;;29.20;87.90;;;;;;4964624;28;20494;-77
2022/08/18 08:57:41;;;;;;;7.78;5.68;;;28.90;85.90;;;;;;4948916;28;20334;-77
2022/08/18 09:00:10;;;;;;;7.22;5.50;;;28.80;86.80;;;;;;4964074;28;20041;-77
2022/08/18 09:02:53;;;;;;;8.73;6.18;;;28.70;87.50;;;;;;4958935;28;20149;-77
2022/08/18 09:05:29;;;;;;;7.67;5.80;;;28.50;83.90;;;;;;4959664;28;20030;-77
2022/08/18 09:08:22;;;;;;;7.35;6.18;;;28.40;86.70;;;;;;4973980;28;20335;-77
2022/08/18 09:11:04;;;;;;;7.47;5.90;;;28.50;88.60;;;;;;4961905;28;20149;-77
2022/08/18 09:13:53;;;;;;;7.57;6.35;;;28.80;92.00;;;;;;4954767;28;20125;-77
2022/08/18 09:16:43;;;;;;;6.55;5.05;;;29.30;92.50;;;;;;4954062;28;20076;-77
2022/08/18 09:19:35;;;;;;;6.40;4.97;;;30.00;92.00;;;;;;4967730;28;20065;-77
2022/08/18 09:22:25;;;;;;;5.90;5.30;;;30.70;91.50;;;;;;4984670;28;20109;-76
2022/08/18 09:24:53;;;;;;;6.85;5.75;;;31.40;92.50;;;;;;4979713;28;20243;-77
2022/08/18 09:27:41;;;;;;;6.80;6.18;;;32.00;93.70;;;;;;4949893;28;20085;-77
2022/08/18 09:30:27;;;;;;;7.28;5.60;;;32.70;88.90;;;;;;4976337;28;20034;-77
2022/08/18 09:33:13;;;;;;;6.00;5.40;;;33.20;91.70;;;;;;4934345;28;20613;-78
2022/08/18 09:35:47;;;;;;;5.65;5.15;;;33.70;89.30;;;;;;4974464;28;20249;-77
2022/08/18 09:41:31;;;;;;;6.00;5.50;;;34.50;83.70;;;;;;4945095;28;20023;-77
2022/08/18 09:44:09;;;;;;;5.95;5.35;;;34.80;79.70;;;;;;4963279;28;20678;-77
2022/08/18 09:46:46;;;;;;;4.30;3.90;;;34.90;78.10;;;;;;4971784;28;20386;-77
2022/08/18 09:49:21;;;;;;;5.38;4.88;;;34.90;75.70;;;;;;4940552;28;20026;-77
2022/08/18 09:51:49;;;;;;;5.38;4.50;;;34.80;74.30;;;;;;4936221;28;20158;-77
2022/08/18 09:54:21;;;;;;;5.38;4.78;;;34.60;79.40;;;;;;4947572;28;20533;-77
2022/08/18 09:56:49;;;;;;;5.35;4.85;;;34.40;75.80;;;;;;4953851;28;21012;-77
2022/08/18 09:59:33;;;;;;;4.70;4.30;;;34.20;78.40;;;;;;4959132;28;20034;-77
2022/08/18 10:02:12;;;;;;;5.47;4.97;;;33.90;72.00;;;;;;4969912;28;20519;-77
2022/08/18 10:04:50;;;;;;;5.03;4.53;;;33.60;72.70;;;;;;4940359;28;20034;-77
2022/08/18 10:07:36;;;;;;;5.05;4.45;;;33.40;77.00;;;;;;4966443;28;20624;-77
2022/08/18 10:10:11;;;;;;;5.28;4.78;;;33.10;72.50;;;;;;4960327;28;20432;-77
2022/08/18 10:12:50;;;;;;;5.23;4.77;;;32.90;76.00;;;;;;4964986;28;20050;-77
2022/08/18 10:15:25;;;;;;;4.93;4.43;;;33.00;78.80;;;;;;4963744;28;20209;-77
2022/08/18 10:18:25;;;;;;;4.97;4.30;;;33.20;80.50;;;;;;4976989;28;20093;-76
2022/08/18 10:21:06;;;;;;;4.88;4.30;;;33.50;79.70;;;;;;4955174;28;20395;-77
2022/08/18 10:23:43;;;;;;;4.80;4.38;;;33.80;80.40;;;;;;4957603;28;20035;-77
2022/08/18 10:26:36;;;;;;;5.23;4.70;;;34.00;75.20;;;;;;4945663;28;20611;-77
2022/08/18 10:29:23;;;;;;;4.93;4.43;;;34.00;73.00;;;;;;4964373;28;20034;-77
2022/08/18 10:31:55;;;;;;;4.85;4.38;;;33.90;71.80;;;;;;4945832;28;20042;-77
2022/08/18 10:34:47;;;;;;;4.45;4.05;;;33.70;72.40;;;;;;4944114;28;20931;-77
2022/08/18 10:37:16;;;;;;;4.60;4.10;;;33.60;73.00;;;;;;4979048;28;20208;-78
2022/08/18 10:39:45;;;;;;;5.50;5.00;;;33.70;78.70;;;;;;4953031;28;20293;-77
2022/08/18 10:42:12;;;;;;;5.03;4.55;;;33.80;77.20;;;;;;4960525;28;20034;-77
2022/08/18 10:44:43;;;;;;;4.47;4.07;;;34.00;77.20;;;;;;4966099;28;20260;-77
2022/08/18 10:47:22;;;;;;;4.47;3.80;;;34.00;74.50;;;;;;4964765;28;20041;-77
2022/08/18 10:49:50;;;;;;;4.65;4.13;;;34.10;71.20;;;;;;4925120;28;20359;-77
2022/08/18 10:52:43;;;;;;;4.70;4.30;;;34.10;73.90;;;;;;4954027;28;20033;-77
2022/08/18 10:55:09;;;;;;;4.80;4.35;;;34.20;69.40;;;;;;4977101;28;20034;-77
2022/08/18 10:58:02;;;;;;;5.07;4.20;;;34.10;72.70;;;;;;4935556;28;20119;-77
2022/08/18 11:01:07;;;;;;;4.97;3.72;;;34.00;67.40;;;;;;4948860;28;20045;-77
2022/08/18 11:03:47;;;;;;;4.90;4.37;;;33.80;67.80;;;;;;4942805;28;20057;-76
2022/08/18 11:06:19;;;;;;;4.45;3.90;;;33.70;68.80;;;;;;4940742;28;20577;-77
2022/08/18 11:08:48;;;;;;;4.95;4.15;;;33.40;67.80;;;;;;4976355;28;20096;-77
2022/08/18 11:11:24;;;;;;;4.22;3.83;;;33.20;68.40;;;;;;4968143;28;20030;-77
2022/08/18 11:14:14;;;;;;;4.55;4.13;;;33.10;67.70;;;;;;4946034;28;20390;-77
2022/08/18 11:17:02;;;;;;;5.47;4.93;;;32.90;66.10;;;;;;4914513;28;20026;-76
2022/08/18 11:19:34;;;;;;;4.95;4.50;;;32.70;66.70;;;;;;4916307;28;20049;-77
2022/08/18 11:22:01;;;;;;;4.85;4.45;;;32.60;70.00;;;;;;4948650;28;20391;-77
2022/08/18 11:24:30;;;;;;;5.28;4.55;;;32.50;70.20;;;;;;4973480;28;20827;-77
2022/08/18 11:27:03;;;;;;;4.70;4.30;;;32.50;69.60;;;;;;4968958;28;20403;-77
2022/08/18 11:29:36;;;;;;;5.90;5.30;;;32.50;68.80;;;;;;4972390;28;20459;-76
2022/08/18 11:32:07;;;;;;;6.65;5.70;;;32.50;68.00;;;;;;4966604;28;20057;-77
2022/08/18 11:34:45;;;;;;;6.25;5.28;;;32.50;68.60;;;;;;4950088;28;20104;-76
2022/08/18 11:37:40;;;;;;;5.45;4.95;;;32.50;66.80;;;;;;4937509;28;20026;-77
2022/08/18 11:40:36;;;;;;;6.95;5.65;;;32.60;66.60;;;;;;4976900;28;20066;-77
2022/08/18 11:43:13;;;;;;;6.50;5.90;;;32.60;68.90;;;;;;4972584;28;20043;-76
2022/08/18 11:45:51;;;;;;;7.10;6.28;;;32.70;67.40;;;;;;4950860;28;20101;-77
2022/08/18 11:48:25;;;;;;;7.00;6.20;;;32.70;68.10;;;;;;4972113;28;20498;-76
2022/08/18 11:50:54;;;;;;;6.82;6.13;;;32.80;68.60;;;;;;4928320;28;20193;-76
2022/08/18 11:53:32;;;;;;;8.23;7.53;;;33.00;69.80;;;;;;4962964;28;20558;-76
2022/08/18 11:56:23;;;;;;;8.40;7.60;;;33.10;66.30;;;;;;4981485;28;20084;-76
2022/08/18 11:58:53;;;;;;;8.02;7.32;;;33.10;66.70;;;;;;4953601;28;22570;-76
2022/08/18 12:01:49;;;;;;;8.05;7.35;;;33.20;68.10;;;;;;4953690;28;20525;-77
2022/08/18 12:04:51;;;;;;;7.43;6.72;;;33.20;65.30;;;;;;4957509;28;20022;-76
2022/08/18 12:07:27;;;;;;;8.25;7.45;;;33.30;67.10;;;;;;4925354;28;20043;-77
2022/08/18 12:10:20;;;;;;;7.37;6.67;;;33.30;66.60;;;;;;4969489;28;20050;-77
2022/08/18 12:12:49;;;;;;;6.85;6.15;;;33.50;65.90;;;;;;4971760;28;20117;-77
2022/08/18 12:15:18;;;;;;;7.72;6.95;;;33.70;69.50;;;;;;4967675;28;20098;-76
2022/08/18 12:17:46;;;;;;;7.20;6.50;;;33.80;71.10;;;;;;4959938;28;20062;-76
2022/08/18 12:20:14;;;;;;;7.82;7.13;;;34.10;69.90;;;;;;4964397;28;20254;-76
2022/08/18 12:22:42;;;;;;;7.30;6.60;;;34.30;68.90;;;;;;4933473;28;20022;-77
2022/08/18 12:25:14;;;;;;;7.60;6.80;;;34.40;68.60;;;;;;4960489;28;20222;-76
2022/08/18 12:27:40;;;;;;;7.43;6.72;;;34.60;69.40;;;;;;4963762;28;20049;-76
2022/08/18 12:30:08;;;;;;;7.93;7.22;;;34.90;71.50;;;;;;4968157;28;20035;-77
2022/08/18 12:32:35;;;;;;;7.20;6.50;;;35.30;70.60;;;;;;4969372;28;20049;-76
2022/08/18 12:35:02;;;;;;;7.47;6.73;;;35.60;70.40;;;;;;4959144;28;20023;-77
2022/08/18 12:37:29;;;;;;;7.45;6.65;;;35.90;69.10;;;;;;4970074;28;20030;-76
2022/08/18 12:39:57;;;;;;;7.25;6.65;;;36.10;68.30;;;;;;4948360;28;20034;-76
2022/08/18 12:42:23;;;;;;;7.03;6.43;;;36.30;67.50;;;;;;4975542;28;20084;-77
2022/08/18 12:44:51;;;;;;;7.47;6.78;;;36.60;68.10;;;;;;4959437;28;20054;-76
2022/08/18 12:47:23;;;;;;;6.63;6.10;;;36.80;66.80;;;;;;4967056;28;20039;-76
2022/08/18 12:49:49;;;;;;;7.43;6.82;;;36.90;64.40;;;;;;4954532;28;20057;-76
2022/08/18 12:52:16;;;;;;;5.97;5.47;;;37.00;65.30;;;;;;4963623;28;20022;-77
2022/08/18 12:54:42;;;;;;;6.28;5.78;;;37.20;64.80;;;;;;4933484;28;20471;-76
2022/08/18 12:57:18;;;;;;;6.80;6.13;;;37.30;65.90;;;;;;4943357;28;20743;-77
2022/08/18 12:59:45;;;;;;;6.40;5.80;;;37.40;62.70;;;;;;4965034;28;20030;-76
2022/08/18 13:02:11;;;;;;;7.13;6.53;;;37.70;65.20;;;;;;4950031;28;20038;-77
2022/08/18 13:04:37;;;;;;;6.88;6.35;;;37.90;64.60;;;;;;4951069;28;20462;-77
2022/08/18 13:07:06;;;;;;;7.95;7.25;;;38.10;63.80;;;;;;4954645;28;20488;-76
2022/08/18 13:09:33;;;;;;;6.53;6.00;;;38.20;62.80;;;;;;4927104;28;20022;-76
2022/08/18 13:11:59;;;;;;;7.17;6.57;;;38.30;61.80;;;;;;4958924;28;20049;-77
2022/08/18 13:14:25;;;;;;;6.78;6.18;;;38.30;61.80;;;;;;4948541;28;20019;-77
2022/08/18 13:16:51;;;;;;;7.68;7.07;;;38.40;61.70;;;;;;4964284;28;20026;-77
2022/08/18 13:19:18;;;;;;;6.90;6.30;;;38.50;61.30;;;;;;4972437;28;20113;-77
2022/08/18 13:21:43;;;;;;;7.38;6.78;;;38.60;60.80;;;;;;4974607;28;20414;-77
2022/08/18 13:24:10;;;;;;;6.45;5.85;;;38.60;60.40;;;;;;4966860;28;20037;-77
2022/08/18 13:26:40;;;;;;;7.47;6.88;;;38.80;60.30;;;;;;4948368;28;20054;-77